Calwood, Missouri
Current Conditions -  °F | °C
As of 1:54 PM on Wednesday 28 Jan 2015 (Local Time) from KCOU Reporting Station
Clear Clear  
Wind Chill: 58°   Ceiling: Unl
Heat Index: 58°   Visibility: 10mi
Dew Point: 36°   Wind: 18mph
Humidity: 44%   Direction: 160°SSE
Pressure: 29.91"   Gusts: NA
Location:  38.8555°N, 91.9568°W
Report Text: KCOU 281954Z 16016KT 10SM CLR 14/02 A2991 RMK AO2 SLP130 T01440022
Loading
Personal Weather Stations






























Interactive Weather Map New forecast layout! Learn more

10-Day Weather Forecast

Advertisements
Track Severe Weather on mobile